Aviation Digital Data Service (ADDS)

Output produced by METARs form (1340 UTC 24 August 2019)
found at http://www.aviationweather.gov/metar/data/
 
Forecast for: MMCU (CHIHUAHUA INTL A, MX)
Text: TAF MMCU 240528Z 2406/2506 00000KT P6SM BKN200
Forecast period: 0600 to 1800 UTC 24 August 2019
Forecast type: FROM: standard forecast or significant change
Winds: calm
Visibility: 6 or more miles 10+ km)
Ceiling: 20000 feet AGL
Clouds: broken clouds at 20000 feet AGL
Weather: no significant weather forecast for this period
Text: FM241800 28010KT P6SM SCT030 SCT080 BKN220
Forecast period: 1800 UTC 24 August 2019 to 0300 UTC 25 August 2019
Forecast type: FROM: standard forecast or significant change
Winds: from the W (280 degrees) at 12 MPH (10 knots; 5.1 m/s)
Visibility: 6 or more miles 10+ km)
Ceiling: 22000 feet AGL
Clouds: scattered clouds at 3000 feet AGL
scattered clouds at 8000 feet AGL
broken clouds at 22000 feet AGL
Weather: no significant weather forecast for this period
Text: BECMG 2503/2505 25005KT SCT220
Forecast period: 0300 to 0600 UTC 25 August 2019
Forecast type: BECOMING: Conditions expected to become as follows by 0500 UTC 25 August 2019
Winds: from the WSW (250 degrees) at 6 MPH (5 knots; 2.6 m/s)
Visibility: 6 or more miles 10+ km)
Ceiling: at least 12,000 feet AGL
Clouds: scattered clouds at 22000 feet AGL
Weather: no significant weather forecast for this period